Time;durP1;ratioP1;P1;durP2;ratioP2;P2;SDS_P1;SDS_P2;PMS_P1;PMS_P2;Temp;Humidity;BMP_temperature;BMP_pressure;BME280_temperature;BME280_humidity;BME280_pressure;Samples;Min_cycle;Max_cycle;Signal;HPM_P1;HPM_P2
2023/01/04 00:00:53;;;;;;;7.93;4.55;;;;;;;4.30;52.15;96367.44;5007394;28;20097;-71
2023/01/04 00:03:19;;;;;;;10.45;3.50;;;;;;;4.64;51.13;96371.88;5008335;28;20075;-71
2023/01/04 00:05:44;;;;;;;8.57;3.70;;;;;;;3.94;52.43;96368.38;5008810;28;20493;-71
2023/01/04 00:08:10;;;;;;;8.88;3.80;;;;;;;3.45;54.62;96359.78;5008727;28;20093;-71
2023/01/04 00:10:35;;;;;;;6.70;3.42;;;;;;;4.27;52.54;96354.50;5010075;28;20075;-71
2023/01/04 00:13:00;;;;;;;9.60;6.10;;;;;;;4.47;52.67;96360.84;5007021;28;20321;-71
2023/01/04 00:15:26;;;;;;;8.73;3.60;;;;;;;4.93;50.93;96348.41;5009599;28;20062;-71
2023/01/04 00:17:51;;;;;;;9.43;4.70;;;;;;;4.63;51.68;96344.63;5006860;28;20554;-71
2023/01/04 00:20:17;;;;;;;8.02;4.68;;;;;;;4.47;52.84;96333.63;5009026;28;20099;-71
2023/01/04 00:22:42;;;;;;;11.20;5.85;;;;;;;3.57;54.23;96325.59;5008682;28;20123;-71
2023/01/04 00:25:08;;;;;;;7.28;3.38;;;;;;;3.04;55.84;96325.03;5003944;28;20083;-71
2023/01/04 00:27:33;;;;;;;5.90;3.60;;;;;;;4.29;52.63;96318.34;5004430;28;20150;-71
2023/01/04 00:29:59;;;;;;;8.65;4.63;;;;;;;4.57;51.59;96318.78;5005481;28;20096;-71
2023/01/04 00:32:24;;;;;;;10.95;3.10;;;;;;;4.85;50.86;96300.72;5007225;28;20522;-71
2023/01/04 00:34:49;;;;;;;8.10;4.72;;;;;;;4.49;51.18;96300.09;5001727;28;20079;-71
2023/01/04 00:37:15;;;;;;;11.25;7.18;;;;;;;4.36;52.34;96290.53;5006874;28;20489;-71
2023/01/04 00:39:40;;;;;;;9.68;3.80;;;;;;;4.77;51.30;96288.16;5006211;28;20417;-71
2023/01/04 00:42:05;;;;;;;8.98;4.20;;;;;;;4.38;51.55;96277.19;5004517;28;20090;-71
2023/01/04 00:44:32;;;;;;;7.40;3.95;;;;;;;4.05;52.51;96275.31;5006800;28;20091;-71
2023/01/04 00:46:58;;;;;;;9.20;4.28;;;;;;;2.36;56.38;96279.03;5006244;28;20204;-71
2023/01/04 00:49:23;;;;;;;9.45;3.95;;;;;;;2.67;56.98;96269.84;5003012;28;20114;-71
2023/01/04 00:51:49;;;;;;;9.38;4.60;;;;;;;3.19;55.86;96270.41;5010935;28;20084;-71
2023/01/04 00:54:14;;;;;;;5.97;3.92;;;;;;;3.96;53.74;96268.16;5004653;28;20543;-71
2023/01/04 00:56:40;;;;;;;10.90;4.45;;;;;;;3.40;54.44;96273.22;5004749;28;20116;-71
2023/01/04 00:59:05;;;;;;;7.75;4.93;;;;;;;4.28;52.46;96277.94;5005682;28;20110;-71
2023/01/04 01:01:31;;;;;;;7.97;3.53;;;;;;;2.82;56.98;96273.16;5008306;28;20134;-71
2023/01/04 01:03:58;;;;;;;11.07;5.00;;;;;;;1.76;59.00;96278.81;5007898;28;20080;-71
2023/01/04 01:06:24;;;;;;;11.57;4.03;;;;;;;3.28;55.77;96264.47;5008324;28;20120;-71
2023/01/04 01:08:50;;;;;;;5.70;3.72;;;;;;;3.32;55.18;96259.78;4986806;28;20090;-71
2023/01/04 01:11:16;;;;;;;11.75;6.25;;;;;;;4.00;53.22;96247.66;4988292;28;20256;-71
2023/01/04 01:13:41;;;;;;;10.57;4.13;;;;;;;3.70;53.75;96242.03;5004675;28;20095;-71
2023/01/04 01:16:08;;;;;;;8.20;4.05;;;;;;;4.24;52.26;96239.59;5003785;28;20592;-71
2023/01/04 01:18:34;;;;;;;11.73;7.68;;;;;;;4.28;52.20;96240.19;5003760;28;20399;-71
2023/01/04 01:20:59;;;;;;;7.20;4.03;;;;;;;2.88;55.38;96241.97;5005461;28;20409;-71
2023/01/04 01:23:25;;;;;;;8.82;4.47;;;;;;;3.00;56.55;96229.69;5014567;28;20073;-71
2023/01/04 01:25:50;;;;;;;11.15;3.50;;;;;;;3.51;53.53;96232.91;5008138;28;20091;-71
2023/01/04 01:28:15;;;;;;;8.50;4.85;;;;;;;3.01;57.04;96236.63;5013202;28;20522;-71
2023/01/04 01:30:41;;;;;;;12.07;3.80;;;;;;;2.62;57.20;96243.91;5001497;28;20553;-71
2023/01/04 01:33:07;;;;;;;7.72;4.78;;;;;;;3.65;54.53;96228.41;5005674;28;20105;-72
2023/01/04 01:35:33;;;;;;;7.43;3.60;;;;;;;3.60;53.67;96230.56;4992874;28;20074;-71
2023/01/04 01:37:59;;;;;;;8.65;3.80;;;;;;;3.44;53.98;96226.44;4988668;28;20151;-71
2023/01/04 01:40:24;;;;;;;9.88;4.47;;;;;;;2.00;57.46;96238.63;4991587;28;20096;-71
2023/01/04 01:42:49;;;;;;;12.40;3.95;;;;;;;2.14;57.67;96227.16;5008920;28;20517;-71
2023/01/04 01:45:26;;;;;;;7.38;3.70;;;;;;;2.31;57.78;96233.00;5004601;28;20104;-71
2023/01/04 01:47:52;;;;;;;8.93;4.80;;;;;;;3.74;54.73;96222.41;5003872;28;20070;-71
2023/01/04 01:50:29;;;;;;;10.50;4.00;;;;;;;3.03;54.92;96226.00;4980552;28;20099;-71
2023/01/04 01:52:55;;;;;;;8.65;5.20;;;;;;;3.92;53.68;96209.56;4981994;28;20099;-71
2023/01/04 01:55:20;;;;;;;6.28;3.80;;;;;;;4.10;53.46;96201.19;4997774;28;20074;-71
2023/01/04 01:57:45;;;;;;;8.50;3.88;;;;;;;4.14;52.50;96207.88;5005826;28;20895;-71
2023/01/04 02:00:14;;;;;;;7.00;3.42;;;;;;;4.12;52.04;96207.16;4989370;28;20069;-70
2023/01/04 02:03:10;;;;;;;8.60;3.80;;;;;;;3.99;53.09;96214.38;5007553;28;20680;-70
2023/01/04 02:05:36;;;;;;;9.82;5.00;;;;;;;3.64;54.10;96201.22;5009803;28;20126;-70
2023/01/04 02:08:01;;;;;;;11.43;3.92;;;;;;;1.15;59.92;96211.16;5008210;28;20145;-70
2023/01/04 02:10:27;;;;;;;8.45;3.40;;;;;;;3.17;55.01;96191.56;4992598;28;20082;-70
2023/01/04 02:12:52;;;;;;;7.70;3.40;;;;;;;3.35;54.89;96188.50;5007581;28;20107;-70
2023/01/04 02:15:18;;;;;;;9.32;4.97;;;;;;;3.77;53.86;96173.91;5008805;28;20445;-70
2023/01/04 02:17:59;;;;;;;8.07;4.30;;;;;;;4.05;53.89;96174.38;4992360;28;20107;-70
2023/01/04 02:20:42;;;;;;;6.80;3.55;;;;;;;2.05;58.44;96175.28;4999935;28;20080;-70
2023/01/04 02:23:13;;;;;;;7.88;3.63;;;;;;;2.95;54.89;96163.44;5008299;28;20199;-70
2023/01/04 02:26:00;;;;;;;8.00;3.78;;;;;;;3.60;54.34;96164.72;5010488;28;20494;-70
2023/01/04 02:28:29;;;;;;;7.63;4.57;;;;;;;3.90;53.32;96161.44;5014347;28;20519;-70
2023/01/04 02:31:09;;;;;;;10.23;4.10;;;;;;;0.98;62.01;96161.56;5012088;28;20107;-70
2023/01/04 02:33:40;;;;;;;12.30;4.72;;;;;;;3.13;56.01;96153.28;5004564;28;20579;-70
2023/01/04 02:36:27;;;;;;;8.52;4.53;;;;;;;1.57;58.93;96161.94;5011571;28;20064;-70
2023/01/04 02:38:52;;;;;;;7.30;4.72;;;;;;;3.16;55.81;96149.59;5009025;28;20200;-70
2023/01/04 02:41:33;;;;;;;9.27;4.87;;;;;;;3.80;54.29;96137.63;5005948;28;20323;-70
2023/01/04 02:46:52;;;;;;;11.23;3.70;;;;;;;3.65;53.71;96137.06;5006820;28;20075;-70
2023/01/04 02:52:01;;;;;;;8.13;4.53;;;;;;;3.35;54.97;96127.09;5006474;28;20150;-70
2023/01/04 02:54:31;;;;;;;6.47;3.42;;;;;;;4.00;53.64;96110.63;5011242;28;20528;-70
2023/01/04 02:57:24;;;;;;;9.23;4.22;;;;;;;3.09;56.04;96115.03;4994381;28;20141;-70
2023/01/04 02:59:52;;;;;;;6.18;3.90;;;;;;;2.55;57.98;96109.41;5010513;28;20068;-70
2023/01/04 03:08:44;;;;;;;8.93;3.33;;;;;;;3.02;55.57;96092.75;5003704;28;20184;-71
2023/01/04 03:14:08;;;;;;;6.30;3.22;;;;;;;3.75;53.73;96081.03;4989995;28;20180;-70
2023/01/04 03:16:34;;;;;;;7.50;3.53;;;;;;;2.13;58.84;96079.19;4993211;28;20520;-70
2023/01/04 03:19:08;;;;;;;7.47;4.05;;;;;;;2.23;59.84;96079.34;4988075;28;20541;-70
2023/01/04 03:21:34;;;;;;;6.85;3.85;;;;;;;2.20;59.88;96063.81;5005374;28;20088;-70
2023/01/04 03:36:09;;;;;;;6.85;3.38;;;;;;;2.31;59.71;96039.34;5011856;28;20555;-70
2023/01/04 03:50:29;;;;;;;5.78;3.50;;;;;;;2.22;60.89;96019.84;4965291;28;20627;-70
2023/01/04 03:52:54;;;;;;;8.35;4.32;;;;;;;2.45;60.36;96024.34;5017702;28;20618;-70
2023/01/04 03:55:20;;;;;;;6.80;3.85;;;;;;;2.93;56.75;96025.09;4989401;28;20148;-70
2023/01/04 03:57:45;;;;;;;6.45;4.00;;;;;;;2.93;57.18;96027.72;4987509;28;20113;-70
2023/01/04 04:00:12;;;;;;;7.70;4.28;;;;;;;0.32;65.39;96030.56;4990021;28;21160;-69
2023/01/04 04:02:38;;;;;;;6.40;3.70;;;;;;;2.33;60.59;96012.97;5004516;28;20079;-70
2023/01/04 04:10:32;;;;;;;5.93;3.65;;;;;;;3.13;57.70;96002.50;5003386;28;20207;-70
2023/01/04 04:12:57;;;;;;;7.93;3.65;;;;;;;3.20;57.36;95997.56;5010415;28;20552;-70
2023/01/04 04:15:23;;;;;;;7.03;4.20;;;;;;;3.40;56.82;95988.06;5007585;28;20394;-70
2023/01/04 04:17:48;;;;;;;5.75;3.70;;;;;;;3.24;57.91;95994.59;5009275;28;20109;-69
2023/01/04 04:20:13;;;;;;;8.18;4.65;;;;;;;2.09;59.11;96004.22;5005063;28;20098;-70
2023/01/04 04:22:39;;;;;;;8.95;4.35;;;;;;;3.23;57.51;95997.34;5004652;28;20079;-70
2023/01/04 04:25:05;;;;;;;5.88;3.47;;;;;;;3.32;56.86;96008.91;5004638;28;20104;-70
2023/01/04 04:27:30;;;;;;;6.30;4.15;;;;;;;2.61;59.87;95998.56;5003766;28;20246;-70
2023/01/04 04:29:56;;;;;;;7.45;4.20;;;;;;;3.44;57.34;95992.16;5008330;28;20097;-70
2023/01/04 04:32:21;;;;;;;7.10;3.55;;;;;;;3.43;57.09;95996.56;5005735;28;20441;-70
2023/01/04 04:34:47;;;;;;;5.80;3.65;;;;;;;2.83;57.71;96002.16;5003728;28;20080;-70
2023/01/04 04:37:12;;;;;;;7.10;3.90;;;;;;;3.68;56.11;95999.88;4990351;28;20106;-70
2023/01/04 04:39:37;;;;;;;7.43;4.07;;;;;;;4.04;55.45;95982.94;5006564;28;20537;-70
2023/01/04 04:42:03;;;;;;;6.32;3.80;;;;;;;4.23;53.67;95994.59;5010545;28;20457;-70
2023/01/04 04:44:28;;;;;;;5.70;3.88;;;;;;;2.50;58.88;95999.38;5002678;28;20498;-70
2023/01/04 04:46:53;;;;;;;10.80;4.07;;;;;;;1.81;61.04;95995.72;5006356;28;20389;-70
2023/01/04 04:49:20;;;;;;;7.00;4.05;;;;;;;2.07;61.76;96003.47;5004969;28;20143;-70
2023/01/04 04:51:46;;;;;;;9.63;4.55;;;;;;;1.79;60.78;95992.41;5004204;28;20080;-70
2023/01/04 04:54:14;;;;;;;9.15;3.95;;;;;;;1.43;63.33;95994.94;5006275;28;20495;-70
2023/01/04 04:56:40;;;;;;;8.38;3.95;;;;;;;1.83;62.13;95993.00;4988040;28;20102;-70
2023/01/04 04:59:05;;;;;;;14.27;3.92;;;;;;;2.17;62.08;95997.53;4995096;28;20079;-71
2023/01/04 05:01:31;;;;;;;6.53;4.15;;;;;;;2.12;61.52;95984.75;5004899;28;20081;-70
2023/01/04 05:03:56;;;;;;;7.18;3.85;;;;;;;2.56;61.29;95984.09;5007469;28;20516;-70
2023/01/04 05:06:22;;;;;;;8.52;3.92;;;;;;;3.46;57.42;95978.88;5010205;28;20054;-71
2023/01/04 05:08:47;;;;;;;6.20;3.50;;;;;;;2.88;58.52;95986.00;4991565;28;20149;-70
2023/01/04 05:11:13;;;;;;;8.07;3.88;;;;;;;3.06;57.75;95981.06;5009031;28;20399;-70
2023/01/04 05:13:38;;;;;;;8.88;3.75;;;;;;;3.42;56.41;95984.38;5008339;28;20644;-70
2023/01/04 05:16:04;;;;;;;10.57;3.90;;;;;;;3.34;57.55;95964.88;5008299;28;20071;-70
2023/01/04 05:18:30;;;;;;;6.70;3.75;;;;;;;3.14;57.35;95962.88;5004334;28;20116;-70
2023/01/04 05:20:55;;;;;;;6.15;3.47;;;;;;;3.60;57.57;95959.34;5006075;28;20342;-70
2023/01/04 05:23:21;;;;;;;6.38;3.47;;;;;;;4.00;55.66;95957.81;5009896;28;20390;-70
2023/01/04 05:25:56;;;;;;;3.80;3.30;;;;;;;3.35;57.57;95966.56;4999354;28;20096;-70
2023/01/04 05:28:22;;;;;;;5.00;3.22;;;;;;;2.85;58.71;95970.44;4990145;28;20573;-70
2023/01/04 05:30:50;;;;;;;5.40;3.22;;;;;;;3.96;55.77;95935.34;5011474;28;20066;-70
2023/01/04 05:33:26;;;;;;;4.30;3.00;;;;;;;3.12;56.94;95949.03;4976743;28;20462;-70
2023/01/04 05:35:52;;;;;;;3.85;2.47;;;;;;;3.43;57.31;95945.69;5006300;28;20081;-70
2023/01/04 05:38:18;;;;;;;5.07;2.95;;;;;;;3.23;58.91;95932.38;5002062;28;20094;-70
2023/01/04 05:40:43;;;;;;;5.25;2.80;;;;;;;1.61;63.57;95950.78;5001239;28;20111;-70
2023/01/04 05:43:09;;;;;;;6.55;2.28;;;;;;;2.27;62.25;95949.44;5008330;28;20130;-70
2023/01/04 05:45:34;;;;;;;2.45;1.80;;;;;;;2.36;62.80;95958.41;5009122;28;20172;-70
2023/01/04 05:48:00;;;;;;;10.18;2.55;;;;;;;3.09;59.81;95935.28;5009014;28;20075;-70
2023/01/04 05:50:25;;;;;;;2.60;1.80;;;;;;;2.28;62.40;95947.63;5003262;28;20086;-70
2023/01/04 05:52:51;;;;;;;5.70;2.25;;;;;;;3.32;60.28;95930.78;5005826;28;20098;-70
2023/01/04 05:55:17;;;;;;;1.27;1.15;;;;;;;2.83;61.50;95936.41;5007930;28;20132;-70
2023/01/04 05:57:42;;;;;;;2.55;1.80;;;;;;;2.93;61.33;95927.78;5010915;28;20596;-70
2023/01/04 06:00:08;;;;;;;2.05;1.67;;;;;;;1.48;66.13;95916.75;5007914;28;20335;-70
2023/01/04 06:02:34;;;;;;;2.13;1.30;;;;;;;2.65;62.72;95909.75;5003492;28;20472;-69
2023/01/04 06:04:59;;;;;;;3.20;1.40;;;;;;;2.14;63.79;95922.41;5008335;28;20092;-70
2023/01/04 06:07:26;;;;;;;5.10;1.38;;;;;;;1.71;65.89;95910.75;5009210;28;20076;-69
2023/01/04 06:09:51;;;;;;;2.72;1.70;;;;;;;0.82;68.03;95912.69;5011273;28;20110;-69
2023/01/04 06:12:16;;;;;;;2.80;1.83;;;;;;;1.23;67.42;95909.84;5007232;28;20558;-69
2023/01/04 06:14:42;;;;;;;2.38;1.58;;;;;;;2.11;65.08;95912.16;5008593;28;20560;-70
2023/01/04 06:17:07;;;;;;;2.17;1.40;;;;;;;2.24;64.43;95904.13;5004498;28;20755;-69
2023/01/04 06:19:33;;;;;;;2.20;1.30;;;;;;;2.11;65.63;95902.47;5009360;28;20084;-69
2023/01/04 06:21:58;;;;;;;6.03;1.50;;;;;;;2.25;64.83;95895.31;5008584;28;20101;-69
2023/01/04 06:24:24;;;;;;;2.58;1.33;;;;;;;2.29;63.94;95891.50;5003609;28;20106;-70
2023/01/04 06:26:49;;;;;;;4.90;1.75;;;;;;;2.30;63.50;95880.03;5010056;28;20088;-70
2023/01/04 06:29:15;;;;;;;5.28;1.40;;;;;;;0.43;72.17;95935.53;4986974;28;20558;-70
2023/01/04 06:31:40;;;;;;;2.55;1.40;;;;;;;1.37;67.45;95895.69;5004775;28;20084;-69
2023/01/04 06:34:05;;;;;;;3.15;1.45;;;;;;;1.85;65.97;95902.69;5004269;28;20189;-70
2023/01/04 06:36:31;;;;;;;6.05;1.50;;;;;;;1.97;64.14;95900.03;4988058;28;20112;-70
2023/01/04 06:38:57;;;;;;;3.67;1.48;;;;;;;1.32;66.99;95884.69;5005278;28;20469;-70
2023/01/04 06:41:22;;;;;;;2.58;1.50;;;;;;;2.29;65.12;95875.75;4992735;28;20513;-69
2023/01/04 06:43:48;;;;;;;5.78;1.40;;;;;;;1.52;66.13;95896.34;5004721;28;20121;-70
2023/01/04 06:46:13;;;;;;;2.00;1.27;;;;;;;1.91;66.35;95872.50;5009824;28;20112;-69
2023/01/04 06:48:38;;;;;;;1.08;1.00;;;;;;;1.79;66.09;95904.91;5003324;28;20111;-70
2023/01/04 06:51:04;;;;;;;4.60;1.40;;;;;;;0.63;70.73;95881.72;5010819;28;20082;-70
2023/01/04 06:53:29;;;;;;;1.90;1.38;;;;;;;2.09;65.14;95893.88;5004276;28;20529;-70
2023/01/04 06:55:55;;;;;;;2.38;1.40;;;;;;;2.59;63.49;95876.88;5005604;28;20197;-70
2023/01/04 06:58:20;;;;;;;2.28;1.15;;;;;;;1.60;67.70;95893.19;5007169;28;20089;-69
2023/01/04 07:00:46;;;;;;;1.65;1.20;;;;;;;2.19;65.49;95875.63;5007716;28;20106;-70
2023/01/04 07:03:11;;;;;;;2.42;1.50;;;;;;;2.19;65.59;95880.03;5011819;28;20081;-70
2023/01/04 07:05:37;;;;;;;2.55;1.20;;;;;;;2.09;66.05;95890.41;5010020;28;20104;-70
2023/01/04 07:08:02;;;;;;;2.97;1.33;;;;;;;2.98;62.53;95887.00;5007880;28;20082;-70
2023/01/04 07:10:28;;;;;;;1.67;1.25;;;;;;;2.77;62.84;95902.69;5007934;28;20490;-70
2023/01/04 07:12:53;;;;;;;2.25;1.30;;;;;;;1.71;66.45;95881.88;5013397;28;20128;-70
2023/01/04 07:15:19;;;;;;;2.25;1.30;;;;;;;1.92;66.19;95876.78;5021727;28;20072;-70
2023/01/04 07:17:48;;;;;;;3.58;1.70;;;;;;;0.16;72.40;95905.06;5017391;28;20109;-69
2023/01/04 07:20:13;;;;;;;;;;;;;;;1.23;69.49;95878.34;5005259;28;20080;-69
2023/01/04 07:22:38;;;;;;;2.57;1.00;;;;;;;1.01;70.72;95874.66;5014142;28;20339;-70
2023/01/04 07:25:04;;;;;;;1.65;1.40;;;;;;;0.75;71.70;95874.75;5010745;28;20104;-70
2023/01/04 07:27:30;;;;;;;1.85;1.10;;;;;;;1.78;67.40;95859.47;5008669;28;20100;-69
2023/01/04 07:29:55;;;;;;;1.63;1.10;;;;;;;1.39;69.13;95867.53;5005449;28;20481;-69
2023/01/04 07:32:20;;;;;;;1.67;1.08;;;;;;;1.67;67.96;95890.94;5006436;28;20102;-69
2023/01/04 07:34:46;;;;;;;1.15;1.00;;;;;;;0.79;72.13;95868.34;5016706;28;20074;-69
2023/01/04 07:37:12;;;;;;;1.23;1.00;;;;;;;1.97;67.68;95865.91;5013800;28;20575;-69
2023/01/04 07:39:37;;;;;;;2.05;1.30;;;;;;;1.55;68.36;95858.56;5005523;28;20664;-70
2023/01/04 07:42:03;;;;;;;2.35;1.17;;;;;;;1.43;69.42;95855.06;5008632;28;20116;-70
2023/01/04 07:44:28;;;;;;;3.38;1.70;;;;;;;-0.34;75.07;95864.75;5009993;28;20105;-70
2023/01/04 07:46:54;;;;;;;2.95;1.42;;;;;;;2.00;67.48;95871.78;4994811;28;20077;-70
2023/01/04 07:49:19;;;;;;;2.20;1.20;;;;;;;1.11;70.91;95875.69;5007313;28;20113;-70
2023/01/04 07:51:46;;;;;;;2.75;1.15;;;;;;;1.73;69.70;95877.31;5004159;28;20148;-69
2023/01/04 07:54:11;;;;;;;1.45;1.30;;;;;;;1.22;70.45;95859.16;5008356;28;20120;-69
2023/01/04 07:56:37;;;;;;;1.65;1.33;;;;;;;1.42;69.58;95863.84;5008274;28;20113;-69
2023/01/04 07:59:06;;;;;;;1.17;1.08;;;;;;;1.91;68.30;95858.50;5009310;28;20061;-69
2023/01/04 08:01:33;;;;;;;;;;;;;;;2.43;66.07;95871.19;5012003;28;20127;-70
2023/01/04 08:03:59;;;;;;;2.80;1.10;;;;;;;3.20;63.91;95858.13;5003171;28;20133;-70
2023/01/04 08:06:25;;;;;;;0.95;0.95;;;;;;;2.55;65.14;95867.56;5006103;28;20071;-69
2023/01/04 08:08:50;;;;;;;1.35;1.10;;;;;;;1.88;67.84;95864.84;5014875;28;20106;-70
2023/01/04 08:11:18;;;;;;;2.88;1.20;;;;;;;1.60;69.19;95870.38;5011591;28;20079;-70
2023/01/04 08:13:43;;;;;;;2.35;1.40;;;;;;;2.21;66.48;95862.38;5012996;28;20167;-70
2023/01/04 08:16:20;;;;;;;1.50;1.33;;;;;;;1.81;67.51;95858.38;5005856;28;20485;-70
2023/01/04 08:18:45;;;;;;;2.00;1.10;;;;;;;1.42;69.01;95875.19;5009824;28;20190;-70
2023/01/04 08:21:11;;;;;;;1.08;0.90;;;;;;;1.78;69.00;95869.97;5014011;28;20102;-70
2023/01/04 08:23:36;;;;;;;1.38;1.02;;;;;;;1.44;68.99;95867.22;5011959;28;20090;-70
2023/01/04 08:26:09;;;;;;;1.27;0.95;;;;;;;2.41;65.87;95859.97;5005086;28;20581;-70
2023/01/04 08:28:35;;;;;;;1.42;0.88;;;;;;;2.56;66.52;95898.19;4997656;28;20746;-70
2023/01/04 08:31:08;;;;;;;5.28;0.85;;;;;;;2.52;65.67;95854.69;4992284;28;20077;-70
2023/01/04 08:33:34;;;;;;;0.80;0.80;;;;;;;2.17;66.17;95867.00;5007462;28;20103;-70
2023/01/04 08:36:26;;;;;;;0.80;0.80;;;;;;;2.07;66.89;95869.50;5006355;28;20103;-70
2023/01/04 08:38:59;;;;;;;1.33;0.95;;;;;;;2.03;67.33;95869.84;5000488;28;20089;-70
2023/01/04 08:41:24;;;;;;;2.55;1.45;;;;;;;2.34;66.55;95852.56;5000536;28;20106;-70
2023/01/04 08:43:49;;;;;;;1.88;0.88;;;;;;;2.72;65.29;95868.88;5000882;28;20112;-70
2023/01/04 08:46:15;;;;;;;1.00;1.00;;;;;;;2.27;66.79;95862.72;5006581;28;20092;-70
2023/01/04 08:48:40;;;;;;;1.60;0.88;;;;;;;1.64;69.66;95867.53;5007278;28;20417;-70
2023/01/04 08:51:08;;;;;;;1.38;0.68;;;;;;;1.76;68.65;95858.72;5006278;28;20133;-70
2023/01/04 08:53:33;;;;;;;0.65;0.63;;;;;;;1.81;69.90;95853.13;5010404;28;20105;-70
2023/01/04 08:55:59;;;;;;;2.08;0.90;;;;;;;1.69;69.30;95868.00;5008246;28;20108;-70
2023/01/04 08:58:28;;;;;;;1.10;1.00;;;;;;;1.95;69.14;95838.94;5007418;28;20172;-70
2023/01/04 09:01:08;;;;;;;6.13;1.58;;;;;;;2.70;66.95;95841.03;4991346;28;20101;-70
2023/01/04 09:03:33;;;;;;;1.70;1.00;;;;;;;1.76;69.24;95848.22;5003506;28;20115;-70
2023/01/04 09:06:07;;;;;;;1.20;1.10;;;;;;;1.91;69.26;95846.22;5004957;28;20119;-70
2023/01/04 09:08:33;;;;;;;0.70;0.70;;;;;;;2.01;69.48;95847.19;5006739;28;20307;-70
2023/01/04 09:11:05;;;;;;;1.17;0.80;;;;;;;2.20;68.11;95819.47;5006978;28;20325;-70
2023/01/04 09:13:32;;;;;;;1.67;1.10;;;;;;;1.41;71.37;95823.69;5002533;28;20092;-70
2023/01/04 09:16:01;;;;;;;2.35;1.08;;;;;;;2.20;69.65;95837.88;5001560;28;20093;-71
2023/01/04 09:18:27;;;;;;;1.60;0.98;;;;;;;1.74;70.84;95837.03;5000005;28;20485;-70
2023/01/04 09:20:52;;;;;;;1.92;0.88;;;;;;;2.33;68.79;95834.28;4988521;28;20718;-70
2023/01/04 09:23:18;;;;;;;2.25;0.77;;;;;;;1.20;73.47;95831.34;5008887;28;20073;-70
2023/01/04 09:25:43;;;;;;;0.73;0.73;;;;;;;1.55;72.26;95825.28;5008488;28;20116;-70
2023/01/04 09:28:09;;;;;;;1.20;1.00;;;;;;;1.45;72.37;95837.38;5003347;28;20092;-70
2023/01/04 09:30:35;;;;;;;0.98;0.95;;;;;;;1.33;72.78;95829.47;5000535;28;20284;-70
2023/01/04 09:33:00;;;;;;;1.40;1.23;;;;;;;1.67;71.85;95835.81;5003412;28;20570;-70
2023/01/04 09:35:25;;;;;;;1.83;1.20;;;;;;;1.43;72.13;95839.31;5000996;28;20092;-71
2023/01/04 09:37:51;;;;;;;2.47;1.58;;;;;;;1.54;72.39;95818.38;5009660;28;20186;-70
2023/01/04 09:40:26;;;;;;;1.13;1.00;;;;;;;1.79;71.18;95848.00;5008116;28;20596;-70
2023/01/04 09:42:51;;;;;;;1.15;0.85;;;;;;;2.65;67.99;95818.59;5007825;28;20608;-70
2023/01/04 09:45:21;;;;;;;3.13;1.25;;;;;;;2.61;68.00;95845.22;4990846;28;20105;-70
2023/01/04 09:48:04;;;;;;;1.90;1.00;;;;;;;2.45;68.35;95827.22;5007538;28;20540;-70
2023/01/04 09:50:35;;;;;;;1.73;1.00;;;;;;;1.73;71.92;95827.44;5002153;28;20252;-70
2023/01/04 09:53:11;;;;;;;1.00;0.80;;;;;;;2.25;69.76;95827.00;4990219;28;20183;-70
2023/01/04 09:55:38;;;;;;;0.70;0.70;;;;;;;2.01;70.13;95830.59;5007451;28;20081;-70
2023/01/04 09:58:16;;;;;;;1.55;0.93;;;;;;;1.39;72.42;95835.25;5009994;28;20200;-71
2023/01/04 10:01:09;;;;;;;0.70;0.70;;;;;;;1.82;71.21;95818.03;4969061;28;20110;-70
2023/01/04 10:03:38;;;;;;;1.08;0.70;;;;;;;0.90;74.42;95845.75;5010666;28;20075;-70
2023/01/04 10:06:05;;;;;;;0.93;0.93;;;;;;;1.61;72.70;95824.81;5016756;28;20125;-70
2023/01/04 10:08:30;;;;;;;1.45;0.80;;;;;;;1.43;72.25;95839.31;4994604;28;20108;-70
2023/01/04 10:11:04;;;;;;;1.65;0.90;;;;;;;1.79;71.33;95813.88;5006251;28;20479;-70
2023/01/04 10:13:33;;;;;;;3.00;1.20;;;;;;;1.98;71.56;95821.16;4998909;28;20094;-70
2023/01/04 10:16:19;;;;;;;1.37;0.90;;;;;;;1.41;73.84;95825.44;5002128;28;20172;-70
2023/01/04 10:19:01;;;;;;;1.23;1.02;;;;;;;2.13;70.59;95808.63;5000562;28;20076;-70
2023/01/04 10:21:30;;;;;;;0.70;0.70;;;;;;;2.25;70.01;95804.19;5002644;28;20107;-70
2023/01/04 10:24:21;;;;;;;0.95;0.95;;;;;;;1.45;72.82;95817.25;4987643;28;20082;-70
2023/01/04 10:26:48;;;;;;;1.45;1.02;;;;;;;2.00;70.47;95800.03;5005222;28;20337;-70
2023/01/04 10:29:35;;;;;;;0.70;0.70;;;;;;;1.91;71.57;95792.88;4972164;28;20173;-70
2023/01/04 10:32:29;;;;;;;1.83;1.40;;;;;;;2.42;69.07;95793.31;5010471;28;20108;-70
2023/01/04 10:34:54;;;;;;;1.75;0.80;;;;;;;2.21;71.18;95800.13;5016846;28;20270;-70
2023/01/04 10:37:29;;;;;;;3.90;0.60;;;;;;;2.36;70.09;95786.75;5017065;28;20287;-70
2023/01/04 10:39:54;;;;;;;2.75;0.85;;;;;;;2.14;71.27;95801.56;5014296;28;20084;-70
2023/01/04 10:42:31;;;;;;;0.70;0.70;;;;;;;1.98;71.22;95792.25;5005915;28;20462;-70
2023/01/04 10:45:12;;;;;;;0.80;0.80;;;;;;;1.87;72.18;95800.97;5002053;28;20110;-70
2023/01/04 10:48:14;;;;;;;1.85;0.95;;;;;;;2.30;70.06;95780.19;4991435;28;20082;-71
2023/01/04 10:51:00;;;;;;;1.00;0.90;;;;;;;1.61;73.34;95798.56;5002273;28;20177;-70
2023/01/04 10:53:36;;;;;;;0.75;0.63;;;;;;;2.04;71.59;95814.59;5005284;28;20109;-70
2023/01/04 10:56:21;;;;;;;0.68;0.50;;;;;;;2.05;71.74;95771.63;5001493;28;20735;-70
2023/01/04 10:58:53;;;;;;;0.90;0.90;;;;;;;1.55;73.39;95796.41;5007086;28;20518;-70
2023/01/04 11:01:29;;;;;;;1.02;0.60;;;;;;;1.79;73.67;95777.09;4985545;28;20628;-70
2023/01/04 11:04:02;;;;;;;0.95;0.65;;;;;;;2.07;70.89;95777.56;5003153;28;20092;-70
2023/01/04 11:06:41;;;;;;;1.02;0.95;;;;;;;2.34;71.56;95754.47;5001122;28;20670;-71
2023/01/04 11:09:19;;;;;;;0.60;0.60;;;;;;;1.87;71.27;95766.00;4998754;28;20584;-70
2023/01/04 11:11:45;;;;;;;1.48;0.80;;;;;;;2.42;70.89;95777.53;5002602;28;20135;-71
2023/01/04 11:14:11;;;;;;;1.40;0.68;;;;;;;2.47;70.71;95770.94;4999781;28;20147;-71
2023/01/04 11:16:39;;;;;;;1.30;0.80;;;;;;;2.40;70.70;95793.41;5001970;28;20174;-71
2023/01/04 11:19:05;;;;;;;1.73;1.23;;;;;;;2.67;69.89;95763.25;5002161;28;20093;-72
2023/01/04 11:21:34;;;;;;;0.95;0.82;;;;;;;1.92;73.40;95756.00;4998958;28;20094;-72
2023/01/04 11:24:00;;;;;;;;;;;;;;;2.08;72.77;95758.22;5000461;28;20092;-72
2023/01/04 11:26:33;;;;;;;0.50;0.50;;;;;;;2.14;72.74;95760.38;5008328;28;19957;-71
2023/01/04 11:29:05;;;;;;;1.85;0.70;;;;;;;2.23;72.32;95745.69;5012890;28;20488;-70
2023/01/04 11:31:47;;;;;;;0.63;0.63;;;;;;;2.44;71.14;95738.81;5003428;28;20076;-70
2023/01/04 11:34:13;;;;;;;0.68;0.68;;;;;;;1.58;74.79;95732.34;4989244;28;20105;-70
2023/01/04 11:36:42;;;;;;;1.42;0.70;;;;;;;2.90;69.47;95727.16;5005997;28;20471;-70
2023/01/04 11:39:19;;;;;;;3.42;1.80;;;;;;;3.85;66.46;95718.44;5002769;28;20085;-70
2023/01/04 11:41:58;;;;;;;1.38;0.52;;;;;;;3.48;67.92;95719.81;5002403;28;20099;-70
2023/01/04 11:44:24;;;;;;;0.80;0.80;;;;;;;1.97;74.55;95737.22;5001763;28;20107;-70
2023/01/04 11:47:19;;;;;;;6.20;1.25;;;;;;;3.00;71.32;95737.75;5003328;28;20287;-70
2023/01/04 11:49:44;;;;;;;1.63;0.93;;;;;;;2.16;73.16;95760.25;5003858;28;20136;-70
2023/01/04 11:52:30;;;;;;;0.60;0.50;;;;;;;2.94;72.38;95721.66;5005650;28;20440;-70
2023/01/04 11:54:56;;;;;;;0.65;0.45;;;;;;;2.99;71.25;95735.28;5003784;28;20602;-70
2023/01/04 11:57:21;;;;;;;0.95;0.80;;;;;;;3.06;71.24;95725.88;5021739;28;20084;-70
2023/01/04 12:00:09;;;;;;;2.00;1.15;;;;;;;3.45;70.93;95709.53;5001858;28;20180;-70
2023/01/04 12:02:34;;;;;;;0.47;0.47;;;;;;;2.00;76.05;95727.31;5003996;28;20147;-70
2023/01/04 12:05:00;;;;;;;1.80;1.10;;;;;;;2.59;75.16;95713.91;5001905;28;20105;-70
2023/01/04 12:07:32;;;;;;;0.50;0.50;;;;;;;2.50;75.49;95709.41;4993586;28;20063;-72
2023/01/04 12:09:58;;;;;;;0.80;0.80;;;;;;;2.54;75.93;95702.94;4992614;28;20197;-72
2023/01/04 12:12:28;;;;;;;0.40;0.40;;;;;;;2.84;74.11;95698.75;4998085;28;20765;-69
2023/01/04 12:14:54;;;;;;;0.77;0.70;;;;;;;2.33;76.02;95697.63;5003802;28;20066;-70
2023/01/04 12:17:19;;;;;;;0.40;0.40;;;;;;;2.65;75.19;95705.53;5004360;28;20503;-71
2023/01/04 12:19:45;;;;;;;1.63;0.93;;;;;;;2.84;76.31;95690.03;5000987;28;20571;-70
2023/01/04 12:22:21;;;;;;;5.03;2.38;;;;;;;3.15;74.19;95704.09;5005912;28;20135;-71
2023/01/04 12:24:47;;;;;;;1.00;0.90;;;;;;;2.57;75.34;95684.31;5003442;28;20082;-71
2023/01/04 12:27:12;;;;;;;0.55;0.55;;;;;;;2.41;76.18;95682.06;5003542;28;20599;-71
2023/01/04 12:29:51;;;;;;;0.52;0.52;;;;;;;2.30;74.68;95701.34;5001453;28;20102;-71
2023/01/04 12:32:16;;;;;;;1.90;1.30;;;;;;;2.76;73.93;95672.28;5005640;28;20097;-70